Coastal Carolina Regional Airport
KEWN : now visible

Airfield :











YOU CAN JOIN US ON...

 
LOGIN :

Register | Disclaimer

   EN    FR    IT 

 









Legend :    VFR   Marginal VFR   IFR   Intensive IFR   Very Intensive IFR
Visi :
Ceiling :
>= 8 km
>= 3000ft
5 to 8 km
1000 to 3000 ft
1500m to 5 km
500 to 1000 ft
800 to 1500m
200 to 500 ft
< 800m
< 200 ft
Symbols :   Thunderstorms  Fog  Heavy snow  Heavy precipitations  Wind > 20 kt






- Airport Elevation : 18 ft
- IATA code : EWN


KEWN - Coastal Carolina Regional

CURRENT METAR :
  • 072054Z 21006KT 10SM CLR 28/12 A2985 RMK AO2 SLP108 T02780122 56030

EXPIRED METARs :
  • 071954Z 00000KT 10SM FEW070 28/13 A2987 RMK AO2 SLP114 T02830133
  • 071854Z VRB05KT 10SM FEW065 28/14 A2990 RMK AO2 SLP125 T02830144

TAF KEWN
Valid from the 07 at 18:00 until the 08 at 18:00 UTC


071755Z 0718/0818 28005KT P6SM FEW100
FM072100 24008G13KT P6SM SCT060 BKN100
FM080200 24007KT P6SM FEW250
FM081400 26010G17KT P6SM SKC



MET'MAP, your aeronautical weather chart ! - Copyright ORBIFLY December 2007 - Disclaimer

ORBIFLY MET'MAP TEAM :

Programming & Development : Alexandra Zaïnal
Concept & original design : Baudouin d'Aumeries
Assistance for programming : Marc-Olivier Méhu
Technical & hardware support : Manuel Goepfert

Contact : metmap@orbifly.com




SOURCES & CREDITS :

   NOAA       Earth
Advisory